Terminal Aerodrome Forecast
Issued by NWS

Home | Current Version | Previous Version | Text Only | Print | Product List | Glossary On
Versions: 1 2 3 4 5 6 7 8 9 10 11 12 13 14 15 16 17
000
FTUS44 KJAN 171731
TAFGTR
TAF
KGTR 171731Z 1718/1818 24009KT P6SM SCT050
     FM171900 24010KT P6SM VCTS SCT050CB
     FM180100 20004KT P6SM SCT060 SCT100
     FM180800 22003KT 6SM BR OVC015
     FM181000 26003KT 6SM BR OVC007
     FM181400 30004KT P6SM OVC015=

USA.gov is the U.S. government's official web portal to all federal, state and local government web resources and services.